Time;durP1;ratioP1;P1;durP2;ratioP2;P2;SDS_P1;SDS_P2;PMS_P1;PMS_P2;Temp;Humidity;BMP_temperature;BMP_pressure;BME280_temperature;BME280_humidity;BME280_pressure;Samples;Min_cycle;Max_cycle;Signal;HPM_P1;HPM_P2
2022/01/28 00:00:32;;;;;;;;;;;;;;;2.83;100.00;103023.81;5044795;28;19978;-73
2022/01/28 00:03:08;;;;;;;;;;;;;;;2.81;100.00;103027.00;5041782;28;20425;-74
2022/01/28 00:05:37;;;;;;;;;;;;;;;2.76;100.00;103040.91;5056236;28;19935;-74
2022/01/28 00:08:04;;;;;;;;;;;;;;;2.71;100.00;103039.56;5045215;28;20329;-74
2022/01/28 00:10:29;;;;;;;;;;;;;;;2.66;100.00;103047.63;5045588;28;19929;-74
2022/01/28 00:13:13;;;;;;;;;;;;;;;2.60;100.00;103052.13;5045217;28;20582;-74
2022/01/28 00:39:43;;;;;;;;;;;;;;;2.27;100.00;103064.16;5049179;28;19983;-74
2022/01/28 00:42:09;;;;;;;;;;;;;;;2.31;100.00;103056.09;5047171;28;19964;-74
2022/01/28 00:44:34;;;;;;;;;;;;;;;2.31;100.00;103067.16;5048462;28;19960;-74
2022/01/28 00:47:00;;;;;;;;;;;;;;;2.32;100.00;103065.50;5048632;28;20031;-73
2022/01/28 00:49:25;;;;;;;;;;;;;;;2.31;100.00;103062.09;5050879;28;19927;-74
2022/01/28 00:51:50;;;;;;;;;;;;;;;2.35;100.00;103063.25;5048800;28;19958;-75
2022/01/28 00:54:17;;;;;;;;;;;;;;;2.36;100.00;103067.56;5068006;28;20454;-74
2022/01/28 00:56:43;;;;;;;;;;;;;;;2.42;100.00;103058.00;5048537;28;20319;-74
2022/01/28 00:59:08;;;;;;;;;;;;;;;2.52;100.00;103055.59;5051959;28;20154;-76
2022/01/28 01:01:34;;;;;;;;;;;;;;;2.52;100.00;103065.75;5065750;28;19928;-73
2022/01/28 01:04:00;;;;;;;;;;;;;;;2.53;100.00;103052.31;5068505;28;19920;-74
2022/01/28 01:06:26;;;;;;;;;;;;;;;2.59;100.00;103057.97;5067263;28;19928;-74
2022/01/28 01:08:51;;;;;;;;;;;;;;;2.64;100.00;103060.97;5069335;28;19916;-74
2022/01/28 01:11:20;;;;;;;;;;;;;;;2.67;100.00;103062.16;5065953;28;19923;-74
2022/01/28 01:13:45;;;;;;;;;;;;;;;2.71;100.00;103070.94;5062463;28;19974;-73
2022/01/28 01:16:13;;;;;;;;;;;;;;;2.75;100.00;103062.88;5050262;28;19993;-74
2022/01/28 01:21:16;;;;;;;;;;;;;;;2.83;100.00;103063.59;5066112;28;20435;-74
2022/01/28 01:23:50;;;;;;;;;;;;;;;2.80;100.00;103070.94;5069725;28;19924;-72
2022/01/28 01:26:15;;;;;;;;;;;;;;;2.81;100.00;103067.66;5036036;28;19920;-74
2022/01/28 01:28:41;;;;;;;;;;;;;;;2.81;100.00;103081.25;5050313;28;20339;-74
2022/01/28 01:31:10;;;;;;;;;;;;;;;2.78;100.00;103080.94;5033504;28;20016;-75
2022/01/28 01:33:42;;;;;;;;;;;;;;;2.78;100.00;103080.03;5049578;28;20365;-74
2022/01/28 01:36:08;;;;;;;;;;;;;;;2.80;100.00;103082.00;5068115;28;20015;-74
2022/01/28 01:38:36;;;;;;;;;;;;;;;2.78;100.00;103080.94;5069403;28;20027;-75
2022/01/28 01:41:04;;;;;;;;;;;;;;;2.81;100.00;103105.75;5077268;28;20023;-74
2022/01/28 01:43:53;;;;;;;;;;;;;;;2.78;100.00;103118.16;5032800;28;19943;-74
2022/01/28 01:46:31;;;;;;;;;;;;;;;2.75;100.00;103112.78;5041664;28;19920;-76
2022/01/28 01:54:24;;;;;;;;;;;;;;;2.68;100.00;103130.00;5071916;28;19963;-74
2022/01/28 01:56:49;;;;;;;;;;;;;;;2.66;100.00;103136.53;5045553;28;19967;-74
2022/01/28 01:59:15;;;;;;;;;;;;;;;2.66;100.00;103139.09;5068030;28;19917;-74
2022/01/28 02:01:40;;;;;;;;;;;;;;;2.64;100.00;103148.22;5049316;28;19925;-75
2022/01/28 02:04:06;;;;;;;;;;;;;;;2.64;100.00;103149.88;5065749;28;19921;-74
2022/01/28 02:06:32;;;;;;;;;;;;;;;2.65;100.00;103154.19;5049849;28;20377;-74
2022/01/28 02:08:57;;;;;;;;;;;;;;;2.67;100.00;103156.16;5069698;28;19916;-75
2022/01/28 02:11:22;;;;;;;;;;;;;;;2.67;100.00;103153.59;5052933;28;19947;-74
2022/01/28 02:13:49;;;;;;;;;;;;;;;2.67;100.00;103150.19;5047735;28;20007;-75
2022/01/28 02:16:15;;;;;;;;;;;;;;;2.68;100.00;103152.84;5035778;28;19973;-75
2022/01/28 02:18:40;;;;;;;;;;;;;;;2.71;100.00;103157.31;5063724;28;20325;-73
2022/01/28 02:21:09;;;;;;;;;;;;;;;2.75;100.00;103164.50;5047948;28;19920;-74
2022/01/28 02:23:35;;;;;;;;;;;;;;;2.76;100.00;103160.31;5061274;28;20259;-74
2022/01/28 02:26:01;;;;;;;;;;;;;;;2.76;100.00;103166.28;5065740;28;19920;-74
2022/01/28 02:28:29;;;;;;;;;;;;;;;2.77;100.00;103164.63;5066071;28;19927;-75
2022/01/28 02:30:55;;;;;;;;;;;;;;;2.81;100.00;103165.09;5071596;28;19959;-75
2022/01/28 02:33:23;;;;;;;;;;;;;;;2.84;100.00;103167.00;5067145;28;19990;-74
2022/01/28 02:35:50;;;;;;;;;;;;;;;2.81;100.00;103167.63;5046357;28;19921;-74
2022/01/28 02:38:16;;;;;;;;;;;;;;;2.81;100.00;103170.16;5051856;28;20113;-74
2022/01/28 02:40:46;;;;;;;;;;;;;;;2.78;100.00;103174.03;5063321;28;19916;-74
2022/01/28 02:45:44;;;;;;;;;;;;;;;2.77;100.00;103168.06;5065118;28;19970;-75
2022/01/28 02:48:17;;;;;;;;;;;;;;;2.78;100.00;103180.03;5066308;28;20387;-74
2022/01/28 02:50:52;;;;;;;;;;;;;;;2.77;100.00;103183.31;5080736;28;19925;-75
2022/01/28 02:53:24;;;;;;;;;;;;;;;2.76;100.00;103186.59;5068548;28;20235;-74
2022/01/28 02:55:57;;;;;;;;;;;;;;;2.80;100.00;103187.81;5047482;28;20301;-74
2022/01/28 02:58:24;;;;;;;;;;;;;;;2.80;100.00;103191.25;5067540;28;20373;-74
2022/01/28 03:00:50;;;;;;;;;;;;;;;2.80;100.00;103191.25;5067375;28;20361;-74
2022/01/28 03:03:18;;;;;;;;;;;;;;;2.79;100.00;103198.69;5066722;28;19923;-74
2022/01/28 03:05:44;;;;;;;;;;;;;;;2.74;100.00;103194.84;5063188;28;19916;-75
2022/01/28 03:08:10;;;;;;;;;;;;;;;2.71;100.00;103199.63;5051871;28;19927;-74
2022/01/28 03:13:46;;;;;;;;;;;;;;;2.70;100.00;103198.72;5040798;28;20389;-74
2022/01/28 03:16:15;;;;;;;;;;;;;;;2.77;100.00;103202.75;5063610;28;19966;-76
2022/01/28 03:19:26;;;;;;;;;;;;;;;2.81;100.00;103204.84;5070208;28;20423;-75
2022/01/28 03:23:54;;;;;;;;;;;;;;;2.87;100.00;103202.91;5063613;28;19927;-75
2022/01/28 03:26:20;;;;;;;;;;;;;;;2.89;100.00;103209.00;5050961;28;19924;-74
2022/01/28 03:28:45;;;;;;;;;;;;;;;2.87;100.00;103206.31;5066290;28;19924;-72
2022/01/28 03:31:11;;;;;;;;;;;;;;;2.86;100.00;103204.53;5063761;28;19924;-74
2022/01/28 03:33:36;;;;;;;;;;;;;;;2.83;100.00;103204.22;5047329;28;20335;-74
2022/01/28 03:36:07;;;;;;;;;;;;;;;2.77;100.00;103202.75;5048168;28;19955;-74
2022/01/28 03:38:33;;;;;;;;;;;;;;;2.69;100.00;103202.91;5054295;28;19920;-75
2022/01/28 03:40:58;;;;;;;;;;;;;;;2.62;100.00;103202.16;5049247;28;20019;-74
2022/01/28 03:43:23;;;;;;;;;;;;;;;2.55;100.00;103215.91;5044746;28;20054;-74
2022/01/28 03:45:49;;;;;;;;;;;;;;;2.47;100.00;103213.34;5063647;28;19963;-73
2022/01/28 03:48:14;;;;;;;;;;;;;;;2.40;100.00;103207.69;5049284;28;20003;-73
2022/01/28 03:50:39;;;;;;;;;;;;;;;2.34;100.00;103213.81;5043331;28;19918;-73
2022/01/28 03:53:06;;;;;;;;;;;;;;;2.25;100.00;103215.44;5055600;28;19995;-74
2022/01/28 03:55:31;;;;;;;;;;;;;;;2.19;100.00;103217.38;5066788;28;19921;-74
2022/01/28 03:57:56;;;;;;;;;;;;;;;2.11;100.00;103220.03;5070697;28;19955;-73
2022/01/28 04:00:26;;;;;;;;;;;;;;;2.09;100.00;103226.59;5044512;28;20050;-74
2022/01/28 04:03:01;;;;;;;;;;;;;;;2.06;100.00;103226.31;5064635;28;19929;-74
2022/01/28 04:13:29;;;;;;;;;;;;;;;1.94;100.00;103222.50;5044427;28;19973;-74
2022/01/28 04:16:27;;;;;;;;;;;;;;;1.91;100.00;103229.84;5067222;28;19920;-74
2022/01/28 04:18:49;;;;;;;;;;;;;;;1.91;100.00;103228.94;5065528;28;19927;-74
2022/01/28 04:21:15;;;;;;;;;;;;;;;1.88;100.00;103237.13;5067346;28;19928;-74
2022/01/28 04:23:40;;;;;;;;;;;;;;;1.84;100.00;103238.47;5067654;28;19961;-74
2022/01/28 04:26:06;;;;;;;;;;;;;;;1.83;100.00;103235.78;5067790;28;20010;-74
2022/01/28 04:28:31;;;;;;;;;;;;;;;1.81;100.00;103237.25;5046684;28;19923;-74
2022/01/28 04:30:56;;;;;;;;;;;;;;;1.81;100.00;103249.94;5046774;28;19924;-75
2022/01/28 04:33:22;;;;;;;;;;;;;;;1.81;100.00;103242.31;5052872;28;19920;-73
2022/01/28 04:35:50;;;;;;;;;;;;;;;1.89;100.00;103249.09;5045074;28;19923;-72
2022/01/28 04:41:41;;;;;;;;;;;;;;;1.98;100.00;103247.47;5016688;28;19968;-74
2022/01/28 04:44:15;;;;;;;;;;;;;;;2.00;100.00;103252.69;5023917;28;20383;-73
2022/01/28 04:46:48;;;;;;;;;;;;;;;2.00;100.00;103256.16;5038684;28;19921;-74
2022/01/28 04:49:21;;;;;;;;;;;;;;;1.97;100.00;103255.81;5044472;28;20370;-74
2022/01/28 04:52:11;;;;;;;;;;;;;;;1.95;100.00;103251.34;5065367;28;19990;-73
2022/01/28 04:54:56;;;;;;;;;;;;;;;1.93;100.00;103257.88;5062752;28;19920;-74
2022/01/28 05:26:32;;;;;;;;;;;;;;;1.56;100.00;103300.69;5050553;28;19927;-73
2022/01/28 05:28:58;;;;;;;;;;;;;;;1.56;100.00;103297.25;5064382;28;19924;-74
2022/01/28 05:31:24;;;;;;;;;;;;;;;1.54;100.00;103302.19;5066248;28;19923;-74
2022/01/28 05:33:49;;;;;;;;;;;;;;;1.50;100.00;103302.59;5070477;28;19978;-75
2022/01/28 05:36:14;;;;;;;;;;;;;;;1.47;100.00;103298.88;5066218;28;19916;-74
2022/01/28 05:38:40;;;;;;;;;;;;;;;1.46;100.00;103307.22;5048799;28;19962;-73
2022/01/28 05:41:05;;;;;;;;;;;;;;;1.45;100.00;103308.81;5049394;28;20011;-73
2022/01/28 05:43:30;;;;;;;;;;;;;;;1.43;100.00;103317.91;5063872;28;19927;-74
2022/01/28 05:45:57;;;;;;;;;;;;;;;1.43;100.00;103325.53;5050936;28;23595;-74
2022/01/28 05:48:23;;;;;;;;;;;;;;;1.41;100.00;103324.47;5048777;28;20017;-73
2022/01/28 05:50:48;;;;;;;;;;;;;;;1.37;100.00;103321.47;5050510;28;19921;-74
2022/01/28 05:53:14;;;;;;;;;;;;;;;1.29;100.00;103320.66;5066611;28;19923;-73
2022/01/28 05:55:39;;;;;;;;;;;;;;;1.25;100.00;103326.16;5049521;28;20428;-74
2022/01/28 05:58:04;;;;;;;;;;;;;;;1.22;100.00;103328.38;5056902;28;19921;-74
2022/01/28 06:00:30;;;;;;;;;;;;;;;1.17;100.00;103332.06;5064592;28;20002;-74
2022/01/28 06:02:55;;;;;;;;;;;;;;;1.17;100.00;103337.13;5046183;28;20309;-75
2022/01/28 06:05:20;;;;;;;;;;;;;;;1.11;100.00;103351.69;5068056;28;19935;-74
2022/01/28 06:07:45;;;;;;;;;;;;;;;1.09;100.00;103346.44;5051905;28;19968;-75
2022/01/28 06:10:12;;;;;;;;;;;;;;;1.04;100.00;103343.44;5063405;28;19924;-73
2022/01/28 06:12:40;;;;;;;;;;;;;;;1.00;100.00;103348.00;5052052;28;19995;-72
2022/01/28 06:15:06;;;;;;;;;;;;;;;0.95;100.00;103354.22;5060473;28;19934;-74
2022/01/28 06:17:31;;;;;;;;;;;;;;;0.91;100.00;103359.69;5082593;28;20301;-74
2022/01/28 06:19:56;;;;;;;;;;;;;;;0.85;100.00;103347.28;5066641;28;19920;-73
2022/01/28 06:22:21;;;;;;;;;;;;;;;0.85;100.00;103351.44;5053966;28;19932;-74
2022/01/28 06:24:46;;;;;;;;;;;;;;;0.84;100.00;103359.78;5048536;28;21148;-76
2022/01/28 06:27:12;;;;;;;;;;;;;;;0.80;100.00;103359.47;5051351;28;19920;-73
2022/01/28 06:29:37;;;;;;;;;;;;;;;0.78;100.00;103376.09;5059836;28;20424;-74
2022/01/28 06:32:02;;;;;;;;;;;;;;;0.77;100.00;103374.31;5068553;28;19989;-74
2022/01/28 06:34:28;;;;;;;;;;;;;;;0.74;100.00;103381.59;5065677;28;20297;-74
2022/01/28 06:36:53;;;;;;;;;;;;;;;0.70;100.00;103387.06;5034022;28;19924;-73
2022/01/28 06:39:19;;;;;;;;;;;;;;;0.67;100.00;103383.31;5064000;28;19921;-74
2022/01/28 06:41:45;;;;;;;;;;;;;;;0.64;100.00;103386.38;5050758;28;21007;-73
2022/01/28 06:44:10;;;;;;;;;;;;;;;0.68;100.00;103395.22;5065969;28;19926;-74
2022/01/28 06:46:36;;;;;;;;;;;;;;;0.66;100.00;103402.63;5063666;28;19920;-73
2022/01/28 06:49:01;;;;;;;;;;;;;;;0.64;100.00;103413.34;5047930;28;19932;-74
2022/01/28 06:51:27;;;;;;;;;;;;;;;0.60;100.00;103416.28;5066391;28;19916;-74
2022/01/28 06:53:52;;;;;;;;;;;;;;;0.59;100.00;103417.00;5065149;28;19917;-73
2022/01/28 06:56:17;;;;;;;;;;;;;;;0.64;100.00;103421.84;5066553;28;19939;-72
2022/01/28 06:58:42;;;;;;;;;;;;;;;0.76;100.00;103419.75;5064994;28;19966;-74
2022/01/28 07:01:08;;;;;;;;;;;;;;;0.84;100.00;103424.00;5066770;28;19920;-75
2022/01/28 07:03:34;;;;;;;;;;;;;;;0.78;100.00;103447.03;5050048;28;20595;-74
2022/01/28 07:05:59;;;;;;;;;;;;;;;0.63;100.00;103449.53;5068342;28;20070;-74
2022/01/28 07:08:27;;;;;;;;;;;;;;;0.53;100.00;103447.63;5031248;28;19955;-74
2022/01/28 07:10:52;;;;;;;;;;;;;;;0.49;100.00;103450.56;5062410;28;19964;-74
2022/01/28 07:13:17;;;;;;;;;;;;;;;0.44;100.00;103451.69;5057387;28;20345;-74
2022/01/28 07:15:43;;;;;;;;;;;;;;;0.37;100.00;103459.34;5063570;28;19929;-74
2022/01/28 07:18:09;;;;;;;;;;;;;;;0.33;100.00;103460.63;5057335;28;19967;-74
2022/01/28 07:20:34;;;;;;;;;;;;;;;0.31;100.00;103466.25;5065354;28;19916;-73
2022/01/28 07:23:00;;;;;;;;;;;;;;;0.24;100.00;103462.13;5032502;28;19931;-74
2022/01/28 07:25:25;;;;;;;;;;;;;;;0.19;100.00;103463.28;5064679;28;19963;-74
2022/01/28 07:27:50;;;;;;;;;;;;;;;0.13;100.00;103458.44;5062104;28;19917;-72
2022/01/28 07:30:16;;;;;;;;;;;;;;;0.11;100.00;103464.91;5066192;28;20027;-76
2022/01/28 07:32:42;;;;;;;;;;;;;;;0.08;100.00;103478.88;5035332;28;20321;-74
2022/01/28 07:35:07;;;;;;;;;;;;;;;0.05;100.00;103483.59;5045783;28;19927;-73
2022/01/28 07:37:33;;;;;;;;;;;;;;;0.03;100.00;103480.88;5070599;28;20407;-74
2022/01/28 07:39:58;;;;;;;;;;;;;;;0.09;100.00;103481.56;5052041;28;19928;-78
2022/01/28 07:42:25;;;;;;;;;;;;;;;0.17;100.00;103480.78;5050689;28;19924;-77
2022/01/28 07:44:50;;;;;;;;;;;;;;;0.16;100.00;103496.69;5066871;28;19925;-79
2022/01/28 07:47:16;;;;;;;;;;;;;;;0.15;100.00;103496.53;5047305;28;20066;-76
2022/01/28 07:49:41;;;;;;;;;;;;;;;0.16;100.00;103489.09;5064723;28;19925;-73
2022/01/28 07:52:06;;;;;;;;;;;;;;;0.23;100.00;103489.06;5064397;28;19917;-76
2022/01/28 07:54:32;;;;;;;;;;;;;;;0.26;100.00;103486.88;5060555;28;20650;-74
2022/01/28 07:56:58;;;;;;;;;;;;;;;0.28;100.00;103493.75;5074216;28;19983;-75
2022/01/28 07:59:23;;;;;;;;;;;;;;;0.30;100.00;103503.28;5079959;28;19927;-72
2022/01/28 08:01:49;;;;;;;;;;;;;;;0.34;100.00;103502.00;5067564;28;19924;-74
2022/01/28 08:04:14;;;;;;;;;;;;;;;0.38;100.00;103507.59;5048050;28;19962;-74
2022/01/28 08:06:40;;;;;;;;;;;;;;;0.42;100.00;103516.41;5067931;28;19956;-75
2022/01/28 08:09:05;;;;;;;;;;;;;;;0.46;100.00;103501.75;5051322;28;20389;-74
2022/01/28 08:11:31;;;;;;;;;;;;;;;0.51;100.00;103510.75;5062918;28;19940;-76
2022/01/28 08:13:57;;;;;;;;;;;;;;;0.54;100.00;103511.06;5040627;28;19920;-73
2022/01/28 08:16:22;;;;;;;;;;;;;;;0.64;100.00;103519.69;5068045;28;20006;-73
2022/01/28 08:18:48;;;;;;;;;;;;;;;0.72;100.00;103519.78;5065927;28;20010;-73
2022/01/28 08:21:14;;;;;;;;;;;;;;;0.81;100.00;103519.91;5073509;28;20419;-71
2022/01/28 08:23:40;;;;;;;;;;;;;;;0.92;100.00;103526.16;5047529;28;19917;-74
2022/01/28 08:26:05;;;;;;;;;;;;;;;1.01;100.00;103538.19;5070357;28;19916;-74
2022/01/28 08:28:30;;;;;;;;;;;;;;;1.11;100.00;103544.28;5036304;28;19947;-74
2022/01/28 08:30:55;;;;;;;;;;;;;;;1.18;100.00;103540.03;5068598;28;20008;-73
2022/01/28 08:33:21;;;;;;;;;;;;;;;1.28;100.00;103552.06;5063948;28;19928;-72
2022/01/28 08:35:52;;;;;;;;;;;;;;;1.36;100.00;103553.78;5045051;28;19948;-73
2022/01/28 08:38:24;;;;;;;;;;;;;;;1.46;100.00;103559.13;5047571;28;19919;-73
2022/01/28 08:40:50;;;;;;;;;;;;;;;1.58;100.00;103549.41;5051851;28;19916;-73
2022/01/28 08:43:15;;;;;;;;;;;;;;;1.69;100.00;103537.84;5062177;28;20130;-73
2022/01/28 08:45:41;;;;;;;;;;;;;;;1.78;100.00;103549.88;5074238;28;19921;-72
2022/01/28 08:48:06;;;;;;;;;;;;;;;1.86;100.00;103541.44;5062835;28;20023;-72
2022/01/28 08:50:31;;;;;;;;;;;;;;;1.95;100.00;103546.59;5061051;28;19925;-74
2022/01/28 08:52:57;;;;;;;;;;;;;;;2.06;100.00;103551.16;5047357;28;19916;-74
2022/01/28 08:55:23;;;;;;;;;;;;;;;2.34;100.00;103548.94;5052151;28;19921;-72
2022/01/28 08:57:48;;;;;;;;;;;;;;;3.53;100.00;103545.84;5051938;28;19920;-73
2022/01/28 09:00:17;;;;;;;;;;;;;;;4.86;100.00;103550.19;5071742;28;19966;-72
2022/01/28 09:02:42;;;;;;;;;;;;;;;6.68;100.00;103542.03;5067564;28;19933;-72
2022/01/28 09:05:08;;;;;;;;;;;;;;;8.48;100.00;103538.19;5062470;28;19920;-72
2022/01/28 09:07:33;;;;;;;;;;;;;;;10.04;100.00;103544.94;5069891;28;19951;-73
2022/01/28 09:10:04;;;;;;;;;;;;;;;11.38;100.00;103533.84;5067052;28;19916;-71
2022/01/28 09:15:22;;;;;;;;;;;;;;;13.69;91.27;103540.63;5036173;28;20369;-74
2022/01/28 09:17:48;;;;;;;;;;;;;;;14.36;83.77;103535.78;5064807;28;20016;-73
2022/01/28 09:20:13;;;;;;;;;;;;;;;14.89;83.64;103520.56;5052916;28;20373;-74
2022/01/28 09:22:38;;;;;;;;;;;;;;;15.47;82.51;103525.25;5063392;28;19994;-73
2022/01/28 09:25:03;;;;;;;;;;;;;;;16.00;71.81;103535.72;5046763;28;19963;-74
2022/01/28 09:27:51;;;;;;;;;;;;;;;16.09;56.86;103536.16;5080381;28;20374;-73
2022/01/28 09:30:17;;;;;;;;;;;;;;;16.33;61.03;103531.25;5034478;28;19916;-74
2022/01/28 09:32:42;;;;;;;;;;;;;;;16.89;71.66;103547.69;5050388;28;19940;-74
2022/01/28 09:35:08;;;;;;;;;;;;;;;17.26;59.51;103551.88;5054339;28;19921;-74
2022/01/28 09:37:34;;;;;;;;;;;;;;;17.31;60.18;103545.19;5031570;28;19916;-74
2022/01/28 09:39:59;;;;;;;;;;;;;;;17.38;65.48;103542.00;5048749;28;19942;-74
2022/01/28 09:42:28;;;;;;;;;;;;;;;17.78;63.91;103544.59;5040541;28;19998;-75
2022/01/28 09:44:54;;;;;;;;;;;;;;;18.20;65.97;103544.53;5051803;28;20015;-74
2022/01/28 09:47:19;;;;;;;;;;;;;;;18.67;57.67;103538.56;5051685;28;20412;-73
2022/01/28 09:49:45;;;;;;;;;;;;;;;18.82;47.38;103542.56;5047726;28;19925;-75
2022/01/28 09:52:11;;;;;;;;;;;;;;;18.94;49.48;103550.84;5067781;28;19943;-74
2022/01/28 09:54:37;;;;;;;;;;;;;;;18.88;54.65;103546.28;5048919;28;20333;-74
2022/01/28 09:57:03;;;;;;;;;;;;;;;18.88;57.73;103558.44;5065534;28;20364;-75
2022/01/28 09:59:29;;;;;;;;;;;;;;;19.25;55.14;103561.53;5067055;28;20340;-74
2022/01/28 10:01:55;;;;;;;;;;;;;;;19.62;52.76;103561.94;5032892;28;20679;-74
2022/01/28 10:04:21;;;;;;;;;;;;;;;19.90;56.69;103556.78;5064294;28;20010;-74
2022/01/28 10:06:47;;;;;;;;;;;;;;;20.07;56.39;103562.53;5043558;28;20874;-73
2022/01/28 10:09:14;;;;;;;;;;;;;;;20.42;51.42;103550.56;5049761;28;20518;-73
2022/01/28 10:11:43;;;;;;;;;;;;;;;20.89;46.70;103554.56;5064692;28;19963;-74
2022/01/28 10:14:13;;;;;;;;;;;;;;;21.20;50.18;103559.75;5064393;28;19924;-73
2022/01/28 10:16:39;;;;;;;;;;;;;;;20.99;39.87;103554.81;5063822;28;19967;-73
2022/01/28 10:19:09;;;;;;;;;;;;;;;20.68;45.52;103569.63;5047193;28;19955;-75
2022/01/28 10:21:40;;;;;;;;;;;;;;;20.71;52.25;103559.28;5065312;28;19965;-75
2022/01/28 10:24:11;;;;;;;;;;;;;;;21.29;49.68;103560.91;5064691;28;19920;-74
2022/01/28 10:26:38;;;;;;;;;;;;;;;21.66;50.26;103559.25;5064323;28;20301;-75
2022/01/28 10:29:06;;;;;;;;;;;;;;;21.76;49.92;103563.84;5064402;28;20275;-75
2022/01/28 10:31:58;;;;;;;;;;;;;;;21.96;39.98;103566.94;5076118;28;19955;-75
2022/01/28 10:34:25;;;;;;;;;;;;;;;22.07;47.36;103568.09;5062973;28;19923;-76
2022/01/28 10:36:51;;;;;;;;;;;;;;;22.06;39.48;103570.69;5062312;28;20015;-73
2022/01/28 10:39:18;;;;;;;;;;;;;;;22.28;51.34;103567.75;5066046;28;19916;-73
2022/01/28 10:41:50;;;;;;;;;;;;;;;23.04;45.91;103573.72;5059656;28;19920;-74
2022/01/28 10:44:16;;;;;;;;;;;;;;;23.40;44.37;103570.88;5045328;28;20301;-74
2022/01/28 10:46:41;;;;;;;;;;;;;;;23.40;49.04;103570.00;5047033;28;19935;-73
2022/01/28 10:49:08;;;;;;;;;;;;;;;23.57;43.07;103558.03;5043948;28;19928;-73
2022/01/28 10:51:42;;;;;;;;;;;;;;;23.87;47.58;103559.44;5052093;28;20414;-73
2022/01/28 10:54:20;;;;;;;;;;;;;;;23.86;45.75;103555.03;5062653;28;20380;-72
2022/01/28 10:56:47;;;;;;;;;;;;;;;23.69;43.69;103547.78;5064095;28;19920;-73
2022/01/28 10:59:17;;;;;;;;;;;;;;;23.88;43.63;103543.69;5076068;28;19920;-71
2022/01/28 11:01:42;;;;;;;;;;;;;;;24.17;38.40;103537.97;5041998;28;19928;-71
2022/01/28 11:04:09;;;;;;;;;;;;;;;24.25;44.07;103541.56;5043622;28;20014;-72
2022/01/28 11:06:35;;;;;;;;;;;;;;;24.44;42.22;103540.09;5063584;28;19916;-72
2022/01/28 11:09:00;;;;;;;;;;;;;;;24.30;34.93;103539.91;5030529;28;19935;-72
2022/01/28 11:11:26;;;;;;;;;;;;;;;24.14;43.24;103538.78;5047504;28;20377;-74
2022/01/28 11:13:51;;;;;;;;;;;;;;;24.56;43.85;103517.47;5076297;28;19960;-73
2022/01/28 11:16:17;;;;;;;;;;;;;;;24.92;38.12;103517.84;5031487;28;20396;-73
2022/01/28 11:18:42;;;;;;;;;;;;;;;25.37;36.90;103520.09;5030568;28;19983;-73
2022/01/28 11:21:14;;;;;;;;;;;;;;;25.45;38.18;103505.22;5063220;28;20062;-72
2022/01/28 11:23:59;;;;;;;;;;;;;;;25.37;35.10;103514.81;5046921;28;20266;-72
2022/01/28 11:26:43;;;;;;;;;;;;;;;24.86;40.17;103498.50;5047463;28;19917;-73
2022/01/28 11:29:11;;;;;;;;;;;;;;;24.91;34.09;103495.91;5061412;28;19916;-75
2022/01/28 11:31:42;;;;;;;;;;;;;;;25.02;38.60;103489.00;5064791;28;19920;-76
2022/01/28 11:34:19;;;;;;;;;;;;;;;25.51;32.16;103489.44;5063750;28;20382;-75
2022/01/28 11:36:45;;;;;;;;;;;;;;;25.12;29.53;103485.63;5064522;28;19924;-77
2022/01/28 11:39:21;;;;;;;;;;;;;;;24.82;37.51;103487.94;5023361;28;19925;-76
2022/01/28 11:42:03;;;;;;;;;;;;;;;24.72;33.43;103486.94;5063275;28;19935;-76
2022/01/28 11:44:47;;;;;;;;;;;;;;;24.53;34.64;103482.38;5047487;28;19916;-78
2022/01/28 11:47:31;;;;;;;;;;;;;;;23.18;40.14;103485.63;5076893;28;19936;-75
2022/01/28 11:49:57;;;;;;;;;;;;;;;20.90;36.26;103479.63;5061952;28;20018;-76
2022/01/28 11:52:24;;;;;;;;;;;;;;;19.29;43.85;103486.84;5062426;28;20391;-75
2022/01/28 11:54:50;;;;;;;;;;;;;;;17.87;43.05;103490.31;5050500;28;19920;-76
2022/01/28 11:57:16;;;;;;;;;;;;;;;16.97;50.37;103490.81;5060420;28;19917;-75
2022/01/28 11:59:42;;;;;;;;;;;;;;;16.21;49.42;103498.63;5052049;28;20022;-76
2022/01/28 12:02:08;;;;;;;;;;;;;;;15.44;48.83;103489.69;5043550;28;19932;-75
2022/01/28 12:04:41;;;;;;;;;;;;;;;14.86;49.67;103491.91;5059560;28;19920;-76
2022/01/28 12:07:14;;;;;;;;;;;;;;;14.34;49.54;103496.88;5046457;28;19924;-76
2022/01/28 12:09:41;;;;;;;;;;;;;;;13.91;52.59;103486.75;5067181;28;19928;-74
2022/01/28 12:12:11;;;;;;;;;;;;;;;13.51;50.51;103485.28;5063990;28;19970;-73
2022/01/28 12:14:49;;;;;;;;;;;;;;;13.11;51.13;103482.94;5057914;28;20381;-74
2022/01/28 12:17:30;;;;;;;;;;;;;;;12.78;54.94;103489.53;5037700;28;19960;-73
2022/01/28 12:20:24;;;;;;;;;;;;;;;12.65;56.22;103481.84;5041023;28;19917;-74
2022/01/28 12:23:04;;;;;;;;;;;;;;;12.34;54.89;103475.69;5045068;28;19931;-74
2022/01/28 12:25:35;;;;;;;;;;;;;;;12.06;56.79;103472.16;5065232;28;20112;-75
2022/01/28 12:28:20;;;;;;;;;;;;;;;11.91;56.58;103468.59;5046961;28;20442;-75
2022/01/28 12:30:50;;;;;;;;;;;;;;;11.63;57.44;103464.19;5067161;28;20270;-75
2022/01/28 12:33:21;;;;;;;;;;;;;;;11.63;58.80;103458.16;5065709;28;21738;-75
2022/01/28 12:35:50;;;;;;;;;;;;;;;11.72;57.78;103453.63;5066003;28;19917;-75
2022/01/28 12:38:15;;;;;;;;;;;;;;;11.70;58.14;103448.34;5067931;28;20344;-75
2022/01/28 12:40:47;;;;;;;;;;;;;;;11.75;58.18;103441.78;5076510;28;19920;-75
2022/01/28 12:43:16;;;;;;;;;;;;;;;12.04;56.45;103440.22;5051020;28;21560;-76
2022/01/28 12:45:46;;;;;;;;;;;;;;;12.18;57.25;103441.97;5062383;28;20281;-76
2022/01/28 12:48:11;;;;;;;;;;;;;;;12.29;58.74;103440.06;5062919;28;19928;-76
2022/01/28 12:50:36;;;;;;;;;;;;;;;12.51;54.86;103437.13;5063835;28;19935;-76
2022/01/28 12:53:02;;;;;;;;;;;;;;;12.50;57.72;103431.06;5064940;28;19929;-76
2022/01/28 12:55:33;;;;;;;;;;;;;;;12.41;57.03;103427.91;5068527;28;19940;-76
2022/01/28 12:57:58;;;;;;;;;;;;;;;12.36;58.83;103431.91;5062254;28;19921;-76
2022/01/28 13:00:24;;;;;;;;;;;;;;;12.23;56.46;103431.94;5048288;28;20247;-76
2022/01/28 13:02:51;;;;;;;;;;;;;;;12.04;57.61;103427.31;5049535;28;19924;-76
2022/01/28 13:05:32;;;;;;;;;;;;;;;11.91;55.63;103435.97;5047032;28;19927;-75
2022/01/28 13:10:41;;;;;;;;;;;;;;;11.70;58.71;103426.81;5068114;28;19979;-76
2022/01/28 13:13:08;;;;;;;;;;;;;;;11.37;56.98;103408.41;5062533;28;20316;-75
2022/01/28 13:15:34;;;;;;;;;;;;;;;10.98;57.86;103407.56;5048932;28;19970;-75
2022/01/28 13:18:01;;;;;;;;;;;;;;;10.92;59.88;103402.00;5048038;28;20401;-75
2022/01/28 13:20:40;;;;;;;;;;;;;;;10.73;60.73;103399.84;5045686;28;19924;-75
2022/01/28 13:23:06;;;;;;;;;;;;;;;10.64;60.17;103394.09;5065924;28;19995;-75
2022/01/28 13:25:32;;;;;;;;;;;;;;;10.52;59.98;103393.25;5062954;28;20006;-75
2022/01/28 13:28:00;;;;;;;;;;;;;;;10.50;61.61;103393.97;5060990;28;19916;-74
2022/01/28 13:30:26;;;;;;;;;;;;;;;10.50;61.51;103394.84;5065657;28;19967;-75
2022/01/28 13:32:53;;;;;;;;;;;;;;;10.52;61.54;103395.84;5048318;28;19916;-76
2022/01/28 13:35:22;;;;;;;;;;;;;;;10.44;62.10;103385.03;5064269;28;19924;-75
2022/01/28 13:37:48;;;;;;;;;;;;;;;10.55;61.92;103378.00;5050253;28;20289;-75
2022/01/28 13:40:19;;;;;;;;;;;;;;;10.57;61.64;103380.72;5049728;28;20165;-75
2022/01/28 13:42:58;;;;;;;;;;;;;;;10.60;60.21;103374.09;5066572;28;19946;-75
2022/01/28 13:45:31;;;;;;;;;;;;;;;10.53;61.62;103379.59;5064823;28;20393;-75
2022/01/28 13:47:57;;;;;;;;;;;;;;;10.63;62.49;103376.00;5060932;28;19932;-75
2022/01/28 13:50:27;;;;;;;;;;;;;;;10.80;61.40;103370.31;5068675;28;19974;-75
2022/01/28 13:55:48;;;;;;;;;;;;;;;10.99;63.03;103377.56;5064667;28;19993;-76
2022/01/28 13:58:13;;;;;;;;;;;;;;;11.08;61.38;103385.88;5062900;28;20270;-75
2022/01/28 14:00:42;;;;;;;;;;;;;;;10.95;60.49;103381.59;5047351;28;20015;-76
2022/01/28 14:03:24;;;;;;;;;;;;;;;10.83;61.65;103380.78;5070822;28;19966;-76
2022/01/28 14:05:54;;;;;;;;;;;;;;;10.50;61.82;103391.38;5064228;28;20396;-74
2022/01/28 14:08:38;;;;;;;;;;;;;;;10.32;61.69;103384.19;5046501;28;19924;-74